sensor_id;sensor_type;location;lat;lon;timestamp;temperature;humidity
38020;DHT22;23829;51.350;17.286;2023-08-07T00:00:59;29.10;44.80
38020;DHT22;23829;51.350;17.286;2023-08-07T00:03:35;29.20;44.70
38020;DHT22;23829;51.350;17.286;2023-08-07T00:06:02;29.00;44.80
38020;DHT22;23829;51.350;17.286;2023-08-07T00:08:28;29.20;44.70
38020;DHT22;23829;51.350;17.286;2023-08-07T00:11:07;29.00;44.50
38020;DHT22;23829;51.350;17.286;2023-08-07T00:13:34;29.10;44.90
38020;DHT22;23829;51.350;17.286;2023-08-07T00:16:01;29.20;44.60
38020;DHT22;23829;51.350;17.286;2023-08-07T00:18:29;29.20;44.70
38020;DHT22;23829;51.350;17.286;2023-08-07T00:20:55;29.20;44.50
38020;DHT22;23829;51.350;17.286;2023-08-07T00:23:21;28.80;45.20
38020;DHT22;23829;51.350;17.286;2023-08-07T00:25:48;28.90;45.10
38020;DHT22;23829;51.350;17.286;2023-08-07T00:28:14;29.10;44.60
38020;DHT22;23829;51.350;17.286;2023-08-07T00:30:40;29.20;44.30
38020;DHT22;23829;51.350;17.286;2023-08-07T00:33:07;29.20;44.20
38020;DHT22;23829;51.350;17.286;2023-08-07T00:35:33;29.20;44.40
38020;DHT22;23829;51.350;17.286;2023-08-07T00:37:59;29.40;44.10
38020;DHT22;23829;51.350;17.286;2023-08-07T00:40:26;29.30;44.00
38020;DHT22;23829;51.350;17.286;2023-08-07T00:42:52;29.20;44.30
38020;DHT22;23829;51.350;17.286;2023-08-07T00:45:19;29.00;44.40
38020;DHT22;23829;51.350;17.286;2023-08-07T00:47:47;29.00;44.70
38020;DHT22;23829;51.350;17.286;2023-08-07T00:50:13;29.20;44.40
38020;DHT22;23829;51.350;17.286;2023-08-07T00:52:40;29.20;44.20
38020;DHT22;23829;51.350;17.286;2023-08-07T00:55:07;29.30;44.20
38020;DHT22;23829;51.350;17.286;2023-08-07T00:57:33;29.20;44.30
38020;DHT22;23829;51.350;17.286;2023-08-07T01:00:00;29.30;44.10
38020;DHT22;23829;51.350;17.286;2023-08-07T01:02:27;29.20;44.30
38020;DHT22;23829;51.350;17.286;2023-08-07T01:04:53;29.00;44.30
38020;DHT22;23829;51.350;17.286;2023-08-07T01:07:19;29.20;44.30
38020;DHT22;23829;51.350;17.286;2023-08-07T01:09:46;29.30;44.00
38020;DHT22;23829;51.350;17.286;2023-08-07T01:12:19;29.20;44.00
38020;DHT22;23829;51.350;17.286;2023-08-07T01:14:55;29.20;43.90
38020;DHT22;23829;51.350;17.286;2023-08-07T01:17:23;29.20;44.00
38020;DHT22;23829;51.350;17.286;2023-08-07T01:19:51;29.00;44.20
38020;DHT22;23829;51.350;17.286;2023-08-07T01:22:19;29.20;44.00
38020;DHT22;23829;51.350;17.286;2023-08-07T01:24:47;29.20;43.80
38020;DHT22;23829;51.350;17.286;2023-08-07T01:35:41;29.20;43.80
38020;DHT22;23829;51.350;17.286;2023-08-07T01:38:08;29.20;43.80
38020;DHT22;23829;51.350;17.286;2023-08-07T01:40:37;28.90;43.90
38020;DHT22;23829;51.350;17.286;2023-08-07T01:43:04;28.80;44.40
38020;DHT22;23829;51.350;17.286;2023-08-07T01:45:31;29.00;44.00
38020;DHT22;23829;51.350;17.286;2023-08-07T01:47:57;28.90;43.90
38020;DHT22;23829;51.350;17.286;2023-08-07T01:50:25;28.50;44.60
38020;DHT22;23829;51.350;17.286;2023-08-07T01:52:52;28.60;44.60
38020;DHT22;23829;51.350;17.286;2023-08-07T01:55:22;28.60;44.60
38020;DHT22;23829;51.350;17.286;2023-08-07T01:57:51;28.70;44.40
38020;DHT22;23829;51.350;17.286;2023-08-07T02:00:18;28.70;44.20
38020;DHT22;23829;51.350;17.286;2023-08-07T02:02:44;28.80;44.00
38020;DHT22;23829;51.350;17.286;2023-08-07T02:05:13;28.70;44.10
38020;DHT22;23829;51.350;17.286;2023-08-07T02:07:40;28.70;44.10
38020;DHT22;23829;51.350;17.286;2023-08-07T02:10:07;28.60;44.30
38020;DHT22;23829;51.350;17.286;2023-08-07T02:12:33;28.90;43.80
38020;DHT22;23829;51.350;17.286;2023-08-07T02:15:00;28.70;43.90
38020;DHT22;23829;51.350;17.286;2023-08-07T02:17:29;28.70;43.90
38020;DHT22;23829;51.350;17.286;2023-08-07T02:20:07;28.50;44.00
38020;DHT22;23829;51.350;17.286;2023-08-07T02:22:34;28.60;44.10
38020;DHT22;23829;51.350;17.286;2023-08-07T02:25:00;28.60;44.10
38020;DHT22;23829;51.350;17.286;2023-08-07T02:27:26;28.40;44.20
38020;DHT22;23829;51.350;17.286;2023-08-07T02:29:53;28.40;44.50
38020;DHT22;23829;51.350;17.286;2023-08-07T02:32:20;28.40;45.00
38020;DHT22;23829;51.350;17.286;2023-08-07T02:34:46;28.40;44.20
38020;DHT22;23829;51.350;17.286;2023-08-07T02:37:13;28.50;44.50
38020;DHT22;23829;51.350;17.286;2023-08-07T02:39:39;28.70;44.30
38020;DHT22;23829;51.350;17.286;2023-08-07T02:42:06;28.60;44.30
38020;DHT22;23829;51.350;17.286;2023-08-07T02:44:32;28.50;44.70
38020;DHT22;23829;51.350;17.286;2023-08-07T02:46:58;28.30;44.70
38020;DHT22;23829;51.350;17.286;2023-08-07T02:49:25;28.60;44.70
38020;DHT22;23829;51.350;17.286;2023-08-07T02:51:52;28.80;44.30
38020;DHT22;23829;51.350;17.286;2023-08-07T02:54:19;28.60;44.30
38020;DHT22;23829;51.350;17.286;2023-08-07T02:56:45;28.40;44.90
38020;DHT22;23829;51.350;17.286;2023-08-07T02:59:11;28.50;45.20
38020;DHT22;23829;51.350;17.286;2023-08-07T03:01:37;28.40;45.00
38020;DHT22;23829;51.350;17.286;2023-08-07T03:04:04;28.60;44.80
38020;DHT22;23829;51.350;17.286;2023-08-07T03:06:30;28.70;44.70
38020;DHT22;23829;51.350;17.286;2023-08-07T03:08:56;28.70;44.60
38020;DHT22;23829;51.350;17.286;2023-08-07T03:11:23;28.60;44.70
38020;DHT22;23829;51.350;17.286;2023-08-07T03:13:49;28.70;44.60
38020;DHT22;23829;51.350;17.286;2023-08-07T03:16:16;28.90;44.40
38020;DHT22;23829;51.350;17.286;2023-08-07T03:18:42;28.60;44.70
38020;DHT22;23829;51.350;17.286;2023-08-07T03:21:08;28.70;44.90
38020;DHT22;23829;51.350;17.286;2023-08-07T03:23:35;28.80;44.40
38020;DHT22;23829;51.350;17.286;2023-08-07T03:26:09;28.60;45.20
38020;DHT22;23829;51.350;17.286;2023-08-07T03:28:37;28.50;45.10
38020;DHT22;23829;51.350;17.286;2023-08-07T03:31:04;28.70;44.80
38020;DHT22;23829;51.350;17.286;2023-08-07T03:33:32;28.80;44.60
38020;DHT22;23829;51.350;17.286;2023-08-07T03:35:59;28.90;44.70
38020;DHT22;23829;51.350;17.286;2023-08-07T03:38:25;28.80;44.70
38020;DHT22;23829;51.350;17.286;2023-08-07T03:40:53;28.70;45.00
38020;DHT22;23829;51.350;17.286;2023-08-07T03:43:20;28.80;44.80
38020;DHT22;23829;51.350;17.286;2023-08-07T03:45:47;28.80;44.80
38020;DHT22;23829;51.350;17.286;2023-08-07T03:48:14;28.80;44.60
38020;DHT22;23829;51.350;17.286;2023-08-07T03:50:41;28.90;44.80
38020;DHT22;23829;51.350;17.286;2023-08-07T03:53:08;29.10;44.30
38020;DHT22;23829;51.350;17.286;2023-08-07T03:55:38;29.00;44.50
38020;DHT22;23829;51.350;17.286;2023-08-07T03:58:05;28.90;44.50
38020;DHT22;23829;51.350;17.286;2023-08-07T04:00:31;29.10;44.30
38020;DHT22;23829;51.350;17.286;2023-08-07T04:02:58;29.20;44.00
38020;DHT22;23829;51.350;17.286;2023-08-07T04:05:24;29.20;44.10
38020;DHT22;23829;51.350;17.286;2023-08-07T04:07:51;29.20;44.00
38020;DHT22;23829;51.350;17.286;2023-08-07T04:10:17;29.10;44.40
38020;DHT22;23829;51.350;17.286;2023-08-07T04:12:44;29.20;44.20
38020;DHT22;23829;51.350;17.286;2023-08-07T04:15:10;29.00;44.50
38020;DHT22;23829;51.350;17.286;2023-08-07T04:17:37;29.20;44.30
38020;DHT22;23829;51.350;17.286;2023-08-07T04:20:03;29.30;43.90
38020;DHT22;23829;51.350;17.286;2023-08-07T04:22:30;29.20;44.60
38020;DHT22;23829;51.350;17.286;2023-08-07T04:24:56;29.10;44.40
38020;DHT22;23829;51.350;17.286;2023-08-07T04:27:23;29.20;44.10
38020;DHT22;23829;51.350;17.286;2023-08-07T04:29:49;29.20;44.10
38020;DHT22;23829;51.350;17.286;2023-08-07T04:32:16;29.20;44.30
38020;DHT22;23829;51.350;17.286;2023-08-07T04:34:42;29.20;44.40
38020;DHT22;23829;51.350;17.286;2023-08-07T04:37:08;29.40;43.70
38020;DHT22;23829;51.350;17.286;2023-08-07T04:39:34;29.30;44.00
38020;DHT22;23829;51.350;17.286;2023-08-07T04:42:02;29.30;44.50
38020;DHT22;23829;51.350;17.286;2023-08-07T04:44:28;29.40;43.80
38020;DHT22;23829;51.350;17.286;2023-08-07T04:46:55;29.10;44.50
38020;DHT22;23829;51.350;17.286;2023-08-07T04:49:21;29.20;44.70
38020;DHT22;23829;51.350;17.286;2023-08-07T04:51:47;29.30;44.50
38020;DHT22;23829;51.350;17.286;2023-08-07T04:54:13;29.40;44.40
38020;DHT22;23829;51.350;17.286;2023-08-07T04:56:40;29.30;43.80
38020;DHT22;23829;51.350;17.286;2023-08-07T04:59:08;29.30;44.50
38020;DHT22;23829;51.350;17.286;2023-08-07T05:01:34;29.30;44.40
38020;DHT22;23829;51.350;17.286;2023-08-07T05:04:00;29.40;44.40
38020;DHT22;23829;51.350;17.286;2023-08-07T05:06:27;29.60;43.90
38020;DHT22;23829;51.350;17.286;2023-08-07T05:08:54;29.60;43.50
38020;DHT22;23829;51.350;17.286;2023-08-07T05:11:20;29.70;44.10
38020;DHT22;23829;51.350;17.286;2023-08-07T05:13:46;29.60;44.00
38020;DHT22;23829;51.350;17.286;2023-08-07T05:16:13;29.40;44.40
38020;DHT22;23829;51.350;17.286;2023-08-07T05:18:39;29.80;43.90
38020;DHT22;23829;51.350;17.286;2023-08-07T05:21:06;29.90;43.60
38020;DHT22;23829;51.350;17.286;2023-08-07T05:23:34;29.90;43.10
38020;DHT22;23829;51.350;17.286;2023-08-07T05:26:01;29.90;43.30
38020;DHT22;23829;51.350;17.286;2023-08-07T05:28:28;29.80;43.40
38020;DHT22;23829;51.350;17.286;2023-08-07T05:30:54;29.90;43.50
38020;DHT22;23829;51.350;17.286;2023-08-07T05:33:20;29.90;43.40
38020;DHT22;23829;51.350;17.286;2023-08-07T05:35:47;29.70;43.30
38020;DHT22;23829;51.350;17.286;2023-08-07T05:38:13;29.80;43.50
38020;DHT22;23829;51.350;17.286;2023-08-07T05:40:40;29.70;43.60
38020;DHT22;23829;51.350;17.286;2023-08-07T05:43:06;29.60;44.10
38020;DHT22;23829;51.350;17.286;2023-08-07T05:45:33;29.90;43.30
38020;DHT22;23829;51.350;17.286;2023-08-07T05:47:59;29.80;43.60
38020;DHT22;23829;51.350;17.286;2023-08-07T05:50:25;29.90;43.60
38020;DHT22;23829;51.350;17.286;2023-08-07T05:52:51;30.00;42.80
38020;DHT22;23829;51.350;17.286;2023-08-07T05:55:18;29.90;43.10
38020;DHT22;23829;51.350;17.286;2023-08-07T05:57:44;30.00;42.70
38020;DHT22;23829;51.350;17.286;2023-08-07T06:00:11;29.90;43.30
38020;DHT22;23829;51.350;17.286;2023-08-07T06:02:42;29.80;43.10
38020;DHT22;23829;51.350;17.286;2023-08-07T06:05:09;29.80;43.30
38020;DHT22;23829;51.350;17.286;2023-08-07T06:07:38;29.70;43.20
38020;DHT22;23829;51.350;17.286;2023-08-07T06:10:05;29.70;43.80
38020;DHT22;23829;51.350;17.286;2023-08-07T06:12:32;30.00;43.40
38020;DHT22;23829;51.350;17.286;2023-08-07T06:14:58;30.00;44.20
38020;DHT22;23829;51.350;17.286;2023-08-07T06:17:24;30.00;43.50
38020;DHT22;23829;51.350;17.286;2023-08-07T06:19:52;30.10;42.90
38020;DHT22;23829;51.350;17.286;2023-08-07T06:22:19;30.00;43.60
38020;DHT22;23829;51.350;17.286;2023-08-07T06:24:45;30.10;43.90
38020;DHT22;23829;51.350;17.286;2023-08-07T06:27:11;30.20;43.80
38020;DHT22;23829;51.350;17.286;2023-08-07T06:29:38;30.30;43.60
38020;DHT22;23829;51.350;17.286;2023-08-07T06:32:04;30.50;42.30
38020;DHT22;23829;51.350;17.286;2023-08-07T06:34:32;30.60;41.80
38020;DHT22;23829;51.350;17.286;2023-08-07T06:36:58;30.40;42.70
38020;DHT22;23829;51.350;17.286;2023-08-07T06:39:24;30.50;41.80
38020;DHT22;23829;51.350;17.286;2023-08-07T06:41:51;30.50;42.40
38020;DHT22;23829;51.350;17.286;2023-08-07T06:44:21;30.40;42.50
38020;DHT22;23829;51.350;17.286;2023-08-07T06:46:47;30.30;43.30
38020;DHT22;23829;51.350;17.286;2023-08-07T06:49:13;30.20;43.80
38020;DHT22;23829;51.350;17.286;2023-08-07T06:51:39;30.40;42.90
38020;DHT22;23829;51.350;17.286;2023-08-07T06:54:06;30.40;43.30
38020;DHT22;23829;51.350;17.286;2023-08-07T06:56:32;30.20;43.00
38020;DHT22;23829;51.350;17.286;2023-08-07T06:58:58;30.30;43.00
38020;DHT22;23829;51.350;17.286;2023-08-07T07:01:25;30.30;42.30
38020;DHT22;23829;51.350;17.286;2023-08-07T07:03:51;30.40;42.60
38020;DHT22;23829;51.350;17.286;2023-08-07T07:06:19;30.70;41.70
38020;DHT22;23829;51.350;17.286;2023-08-07T07:08:46;30.70;42.40
38020;DHT22;23829;51.350;17.286;2023-08-07T07:11:13;30.70;41.40
38020;DHT22;23829;51.350;17.286;2023-08-07T07:13:39;30.80;42.20
38020;DHT22;23829;51.350;17.286;2023-08-07T07:16:06;30.70;41.90
38020;DHT22;23829;51.350;17.286;2023-08-07T07:18:32;31.00;41.80
38020;DHT22;23829;51.350;17.286;2023-08-07T07:20:59;30.90;42.60
38020;DHT22;23829;51.350;17.286;2023-08-07T07:23:26;30.70;43.60
38020;DHT22;23829;51.350;17.286;2023-08-07T07:25:53;30.70;43.40
38020;DHT22;23829;51.350;17.286;2023-08-07T07:28:19;30.50;43.70
38020;DHT22;23829;51.350;17.286;2023-08-07T07:30:46;30.80;42.70
38020;DHT22;23829;51.350;17.286;2023-08-07T07:33:12;31.20;42.20
38020;DHT22;23829;51.350;17.286;2023-08-07T07:35:40;31.20;42.50
38020;DHT22;23829;51.350;17.286;2023-08-07T07:38:06;31.30;42.70
38020;DHT22;23829;51.350;17.286;2023-08-07T07:40:34;31.40;41.40
38020;DHT22;23829;51.350;17.286;2023-08-07T07:43:00;31.40;40.60
38020;DHT22;23829;51.350;17.286;2023-08-07T07:45:27;31.10;41.80
38020;DHT22;23829;51.350;17.286;2023-08-07T07:47:53;31.40;41.80
38020;DHT22;23829;51.350;17.286;2023-08-07T07:50:20;30.90;41.60
38020;DHT22;23829;51.350;17.286;2023-08-07T07:52:46;31.20;42.20
38020;DHT22;23829;51.350;17.286;2023-08-07T07:55:13;31.30;41.80
38020;DHT22;23829;51.350;17.286;2023-08-07T07:57:40;31.40;42.30
38020;DHT22;23829;51.350;17.286;2023-08-07T08:00:07;31.40;40.50
38020;DHT22;23829;51.350;17.286;2023-08-07T08:02:40;31.50;40.80
38020;DHT22;23829;51.350;17.286;2023-08-07T08:05:12;31.60;40.90
38020;DHT22;23829;51.350;17.286;2023-08-07T08:07:39;31.50;40.70
38020;DHT22;23829;51.350;17.286;2023-08-07T08:10:07;31.40;40.40
38020;DHT22;23829;51.350;17.286;2023-08-07T08:12:33;31.30;40.20
38020;DHT22;23829;51.350;17.286;2023-08-07T08:15:00;30.90;40.30
38020;DHT22;23829;51.350;17.286;2023-08-07T08:17:26;30.70;41.00
38020;DHT22;23829;51.350;17.286;2023-08-07T08:19:52;30.90;41.20
38020;DHT22;23829;51.350;17.286;2023-08-07T08:22:19;30.90;41.40
38020;DHT22;23829;51.350;17.286;2023-08-07T08:24:45;31.10;41.00
38020;DHT22;23829;51.350;17.286;2023-08-07T08:27:13;31.00;41.60
38020;DHT22;23829;51.350;17.286;2023-08-07T08:29:41;31.10;41.60
38020;DHT22;23829;51.350;17.286;2023-08-07T08:32:07;31.40;42.40
38020;DHT22;23829;51.350;17.286;2023-08-07T08:34:34;31.20;41.40
38020;DHT22;23829;51.350;17.286;2023-08-07T08:37:00;31.10;42.10
38020;DHT22;23829;51.350;17.286;2023-08-07T08:39:26;30.90;42.00
38020;DHT22;23829;51.350;17.286;2023-08-07T08:41:53;31.00;42.00
38020;DHT22;23829;51.350;17.286;2023-08-07T08:44:20;31.10;41.50
38020;DHT22;23829;51.350;17.286;2023-08-07T08:46:49;31.30;41.60
38020;DHT22;23829;51.350;17.286;2023-08-07T08:49:35;31.10;41.70
38020;DHT22;23829;51.350;17.286;2023-08-07T08:52:02;31.20;41.20
38020;DHT22;23829;51.350;17.286;2023-08-07T08:54:29;31.20;41.20
38020;DHT22;23829;51.350;17.286;2023-08-07T08:56:57;31.20;41.60
38020;DHT22;23829;51.350;17.286;2023-08-07T08:59:26;31.10;41.10
38020;DHT22;23829;51.350;17.286;2023-08-07T09:01:53;31.20;41.60
38020;DHT22;23829;51.350;17.286;2023-08-07T09:04:20;31.40;43.10
38020;DHT22;23829;51.350;17.286;2023-08-07T09:06:46;31.40;41.60
38020;DHT22;23829;51.350;17.286;2023-08-07T09:09:14;31.40;40.60
38020;DHT22;23829;51.350;17.286;2023-08-07T09:11:43;31.70;40.90
38020;DHT22;23829;51.350;17.286;2023-08-07T09:14:12;31.50;39.90
38020;DHT22;23829;51.350;17.286;2023-08-07T09:16:41;31.30;40.50
38020;DHT22;23829;51.350;17.286;2023-08-07T09:19:08;31.20;41.80
38020;DHT22;23829;51.350;17.286;2023-08-07T09:21:34;30.80;41.70
38020;DHT22;23829;51.350;17.286;2023-08-07T09:24:01;30.90;40.80
38020;DHT22;23829;51.350;17.286;2023-08-07T09:26:28;30.90;40.20
38020;DHT22;23829;51.350;17.286;2023-08-07T09:28:54;31.00;40.40
38020;DHT22;23829;51.350;17.286;2023-08-07T09:31:22;30.90;41.40
38020;DHT22;23829;51.350;17.286;2023-08-07T09:33:52;30.70;40.80
38020;DHT22;23829;51.350;17.286;2023-08-07T09:36:18;31.00;40.90
38020;DHT22;23829;51.350;17.286;2023-08-07T09:38:50;31.20;39.40
38020;DHT22;23829;51.350;17.286;2023-08-07T09:41:19;31.60;38.20
38020;DHT22;23829;51.350;17.286;2023-08-07T09:43:46;31.30;38.80
38020;DHT22;23829;51.350;17.286;2023-08-07T09:46:12;31.20;40.30
38020;DHT22;23829;51.350;17.286;2023-08-07T09:48:41;31.10;39.60
38020;DHT22;23829;51.350;17.286;2023-08-07T09:51:09;31.40;39.80
38020;DHT22;23829;51.350;17.286;2023-08-07T09:53:37;31.20;40.30
38020;DHT22;23829;51.350;17.286;2023-08-07T09:56:03;31.40;38.00
38020;DHT22;23829;51.350;17.286;2023-08-07T09:58:31;31.70;36.90
38020;DHT22;23829;51.350;17.286;2023-08-07T10:01:04;31.70;37.50
38020;DHT22;23829;51.350;17.286;2023-08-07T10:03:31;31.80;36.40
38020;DHT22;23829;51.350;17.286;2023-08-07T10:05:58;31.90;35.10
38020;DHT22;23829;51.350;17.286;2023-08-07T10:08:25;31.80;36.70
38020;DHT22;23829;51.350;17.286;2023-08-07T10:10:52;31.90;36.10
38020;DHT22;23829;51.350;17.286;2023-08-07T10:13:19;31.60;36.30
38020;DHT22;23829;51.350;17.286;2023-08-07T10:15:47;31.50;36.90
38020;DHT22;23829;51.350;17.286;2023-08-07T10:18:14;31.50;37.80
38020;DHT22;23829;51.350;17.286;2023-08-07T10:20:42;31.60;35.50
38020;DHT22;23829;51.350;17.286;2023-08-07T10:23:11;31.50;36.90
38020;DHT22;23829;51.350;17.286;2023-08-07T10:25:41;31.70;36.50
38020;DHT22;23829;51.350;17.286;2023-08-07T10:28:12;32.10;38.20
38020;DHT22;23829;51.350;17.286;2023-08-07T10:30:40;32.10;38.50
38020;DHT22;23829;51.350;17.286;2023-08-07T10:33:09;32.00;36.50
38020;DHT22;23829;51.350;17.286;2023-08-07T10:35:36;32.30;35.60
38020;DHT22;23829;51.350;17.286;2023-08-07T10:38:07;32.20;35.70
38020;DHT22;23829;51.350;17.286;2023-08-07T10:40:59;32.10;36.20
38020;DHT22;23829;51.350;17.286;2023-08-07T10:43:28;32.00;36.80
38020;DHT22;23829;51.350;17.286;2023-08-07T10:46:03;31.80;38.00
38020;DHT22;23829;51.350;17.286;2023-08-07T10:48:30;32.10;35.10
38020;DHT22;23829;51.350;17.286;2023-08-07T10:50:57;32.30;36.60
38020;DHT22;23829;51.350;17.286;2023-08-07T10:53:30;32.40;36.00
38020;DHT22;23829;51.350;17.286;2023-08-07T10:55:58;32.70;36.30
38020;DHT22;23829;51.350;17.286;2023-08-07T10:58:35;32.80;35.90
38020;DHT22;23829;51.350;17.286;2023-08-07T11:03:55;32.70;35.80
38020;DHT22;23829;51.350;17.286;2023-08-07T11:06:30;32.30;35.60
38020;DHT22;23829;51.350;17.286;2023-08-07T11:09:01;32.50;36.40
38020;DHT22;23829;51.350;17.286;2023-08-07T11:11:42;32.70;36.00
38020;DHT22;23829;51.350;17.286;2023-08-07T11:14:11;32.30;36.30
38020;DHT22;23829;51.350;17.286;2023-08-07T11:16:37;32.50;35.60
38020;DHT22;23829;51.350;17.286;2023-08-07T11:19:04;32.40;35.40
38020;DHT22;23829;51.350;17.286;2023-08-07T11:21:32;32.50;34.70
38020;DHT22;23829;51.350;17.286;2023-08-07T11:24:00;32.70;34.20
38020;DHT22;23829;51.350;17.286;2023-08-07T11:26:27;32.50;36.50
38020;DHT22;23829;51.350;17.286;2023-08-07T11:28:59;32.80;34.00
38020;DHT22;23829;51.350;17.286;2023-08-07T11:31:26;32.80;34.40
38020;DHT22;23829;51.350;17.286;2023-08-07T11:33:56;32.60;33.90
38020;DHT22;23829;51.350;17.286;2023-08-07T11:36:24;32.30;34.20
38020;DHT22;23829;51.350;17.286;2023-08-07T11:38:51;32.50;33.60
38020;DHT22;23829;51.350;17.286;2023-08-07T11:41:18;32.70;33.40
38020;DHT22;23829;51.350;17.286;2023-08-07T11:43:48;32.60;33.60
38020;DHT22;23829;51.350;17.286;2023-08-07T11:46:15;32.60;34.20
38020;DHT22;23829;51.350;17.286;2023-08-07T11:48:43;32.50;34.20
38020;DHT22;23829;51.350;17.286;2023-08-07T11:51:10;32.60;33.80
38020;DHT22;23829;51.350;17.286;2023-08-07T11:53:39;32.40;34.50
38020;DHT22;23829;51.350;17.286;2023-08-07T11:56:11;32.50;34.40
38020;DHT22;23829;51.350;17.286;2023-08-07T11:58:42;32.50;35.30
38020;DHT22;23829;51.350;17.286;2023-08-07T12:01:11;32.30;35.60
38020;DHT22;23829;51.350;17.286;2023-08-07T12:03:41;31.90;36.00
38020;DHT22;23829;51.350;17.286;2023-08-07T12:06:09;32.10;36.00
38020;DHT22;23829;51.350;17.286;2023-08-07T12:08:38;32.30;35.00
38020;DHT22;23829;51.350;17.286;2023-08-07T12:11:12;32.10;35.80
38020;DHT22;23829;51.350;17.286;2023-08-07T12:13:43;32.10;35.70
38020;DHT22;23829;51.350;17.286;2023-08-07T12:16:11;32.20;35.80
38020;DHT22;23829;51.350;17.286;2023-08-07T12:18:46;32.50;35.40
38020;DHT22;23829;51.350;17.286;2023-08-07T12:21:23;32.30;35.40
38020;DHT22;23829;51.350;17.286;2023-08-07T12:23:50;32.80;35.40
38020;DHT22;23829;51.350;17.286;2023-08-07T12:26:18;32.80;33.40
38020;DHT22;23829;51.350;17.286;2023-08-07T12:28:44;32.80;33.90
38020;DHT22;23829;51.350;17.286;2023-08-07T12:31:10;32.70;35.10
38020;DHT22;23829;51.350;17.286;2023-08-07T12:33:37;33.10;34.40
38020;DHT22;23829;51.350;17.286;2023-08-07T12:36:03;33.00;34.40
38020;DHT22;23829;51.350;17.286;2023-08-07T12:38:30;33.30;33.70
38020;DHT22;23829;51.350;17.286;2023-08-07T12:40:57;33.50;32.00
38020;DHT22;23829;51.350;17.286;2023-08-07T12:43:26;33.50;32.10
38020;DHT22;23829;51.350;17.286;2023-08-07T12:45:52;33.70;32.40
38020;DHT22;23829;51.350;17.286;2023-08-07T12:48:19;34.00;32.10
38020;DHT22;23829;51.350;17.286;2023-08-07T12:50:46;33.80;32.80
38020;DHT22;23829;51.350;17.286;2023-08-07T12:53:12;33.40;32.20
38020;DHT22;23829;51.350;17.286;2023-08-07T12:55:40;33.30;32.90
38020;DHT22;23829;51.350;17.286;2023-08-07T12:58:06;33.60;33.80
38020;DHT22;23829;51.350;17.286;2023-08-07T13:00:33;33.80;34.00
38020;DHT22;23829;51.350;17.286;2023-08-07T13:02:59;34.00;34.00
38020;DHT22;23829;51.350;17.286;2023-08-07T13:05:28;34.00;33.70
38020;DHT22;23829;51.350;17.286;2023-08-07T13:07:56;34.20;33.20
38020;DHT22;23829;51.350;17.286;2023-08-07T13:10:24;34.40;33.00
38020;DHT22;23829;51.350;17.286;2023-08-07T13:12:54;34.00;31.90
38020;DHT22;23829;51.350;17.286;2023-08-07T13:15:20;34.10;33.00
38020;DHT22;23829;51.350;17.286;2023-08-07T13:17:47;34.00;32.90
38020;DHT22;23829;51.350;17.286;2023-08-07T13:20:13;33.50;33.40
38020;DHT22;23829;51.350;17.286;2023-08-07T13:22:44;33.60;33.50
38020;DHT22;23829;51.350;17.286;2023-08-07T13:25:12;33.50;33.00
38020;DHT22;23829;51.350;17.286;2023-08-07T13:27:39;33.40;33.60
38020;DHT22;23829;51.350;17.286;2023-08-07T13:30:06;33.60;33.50
38020;DHT22;23829;51.350;17.286;2023-08-07T13:32:33;33.50;34.20
38020;DHT22;23829;51.350;17.286;2023-08-07T13:35:00;33.70;33.20
38020;DHT22;23829;51.350;17.286;2023-08-07T13:37:26;33.70;33.70
38020;DHT22;23829;51.350;17.286;2023-08-07T13:39:52;33.60;34.00
38020;DHT22;23829;51.350;17.286;2023-08-07T13:42:23;33.40;33.30
38020;DHT22;23829;51.350;17.286;2023-08-07T13:44:49;33.50;33.70
38020;DHT22;23829;51.350;17.286;2023-08-07T13:47:15;33.70;33.30
38020;DHT22;23829;51.350;17.286;2023-08-07T13:49:43;33.80;33.70
38020;DHT22;23829;51.350;17.286;2023-08-07T13:52:10;33.90;32.70
38020;DHT22;23829;51.350;17.286;2023-08-07T13:54:36;33.60;33.20
38020;DHT22;23829;51.350;17.286;2023-08-07T13:57:03;33.80;33.20
38020;DHT22;23829;51.350;17.286;2023-08-07T13:59:29;33.70;33.70
38020;DHT22;23829;51.350;17.286;2023-08-07T14:01:56;33.60;34.20
38020;DHT22;23829;51.350;17.286;2023-08-07T14:04:22;33.10;34.80
38020;DHT22;23829;51.350;17.286;2023-08-07T14:06:49;32.80;37.00
38020;DHT22;23829;51.350;17.286;2023-08-07T14:09:15;32.60;38.50
38020;DHT22;23829;51.350;17.286;2023-08-07T14:11:43;32.50;38.80
38020;DHT22;23829;51.350;17.286;2023-08-07T14:14:09;32.20;39.10
38020;DHT22;23829;51.350;17.286;2023-08-07T14:16:36;32.10;39.90
38020;DHT22;23829;51.350;17.286;2023-08-07T14:19:02;32.10;39.90
38020;DHT22;23829;51.350;17.286;2023-08-07T14:21:28;32.00;40.10
38020;DHT22;23829;51.350;17.286;2023-08-07T14:23:55;32.00;40.40
38020;DHT22;23829;51.350;17.286;2023-08-07T14:26:21;32.20;40.20
38020;DHT22;23829;51.350;17.286;2023-08-07T14:28:48;32.30;40.70
38020;DHT22;23829;51.350;17.286;2023-08-07T14:31:15;31.80;40.30
38020;DHT22;23829;51.350;17.286;2023-08-07T14:33:41;31.50;41.30
38020;DHT22;23829;51.350;17.286;2023-08-07T14:36:08;31.60;42.60
38020;DHT22;23829;51.350;17.286;2023-08-07T14:38:35;32.20;41.30
38020;DHT22;23829;51.350;17.286;2023-08-07T14:41:02;32.30;40.50
38020;DHT22;23829;51.350;17.286;2023-08-07T14:43:31;32.30;41.10
38020;DHT22;23829;51.350;17.286;2023-08-07T14:45:58;32.10;41.50
38020;DHT22;23829;51.350;17.286;2023-08-07T14:48:25;32.30;41.30
38020;DHT22;23829;51.350;17.286;2023-08-07T14:50:51;32.00;41.20
38020;DHT22;23829;51.350;17.286;2023-08-07T14:53:18;32.20;40.50
38020;DHT22;23829;51.350;17.286;2023-08-07T14:55:45;32.10;41.50
38020;DHT22;23829;51.350;17.286;2023-08-07T14:58:11;32.10;41.60
38020;DHT22;23829;51.350;17.286;2023-08-07T15:00:38;32.10;41.60
38020;DHT22;23829;51.350;17.286;2023-08-07T15:03:04;31.90;42.30
38020;DHT22;23829;51.350;17.286;2023-08-07T15:05:31;31.90;42.40
38020;DHT22;23829;51.350;17.286;2023-08-07T15:07:59;32.00;42.70
38020;DHT22;23829;51.350;17.286;2023-08-07T15:10:26;32.10;42.20
38020;DHT22;23829;51.350;17.286;2023-08-07T15:12:52;31.80;42.30
38020;DHT22;23829;51.350;17.286;2023-08-07T15:15:19;31.90;42.80
38020;DHT22;23829;51.350;17.286;2023-08-07T15:17:45;32.00;43.70
38020;DHT22;23829;51.350;17.286;2023-08-07T15:20:17;32.10;42.90
38020;DHT22;23829;51.350;17.286;2023-08-07T15:22:47;32.20;41.90
38020;DHT22;23829;51.350;17.286;2023-08-07T15:25:14;32.20;42.90
38020;DHT22;23829;51.350;17.286;2023-08-07T15:27:41;32.30;42.50